sensor_id;sensor_type;location;lat;lon;timestamp;P1;durP1;ratioP1;P2;durP2;ratioP2
19339;SDS011;9804;52.350;6.684;2023-05-07T00:01:42;31.30;;;27.95;;
19339;SDS011;9804;52.350;6.684;2023-05-07T00:04:07;31.20;;;26.85;;
19339;SDS011;9804;52.350;6.684;2023-05-07T00:06:33;33.28;;;28.50;;
19339;SDS011;9804;52.350;6.684;2023-05-07T00:08:58;31.55;;;28.13;;
19339;SDS011;9804;52.350;6.684;2023-05-07T00:11:25;30.25;;;27.10;;
19339;SDS011;9804;52.350;6.684;2023-05-07T00:13:52;33.30;;;27.58;;
19339;SDS011;9804;52.350;6.684;2023-05-07T00:16:17;31.48;;;27.95;;
19339;SDS011;9804;52.350;6.684;2023-05-07T00:18:42;30.40;;;27.10;;
19339;SDS011;9804;52.350;6.684;2023-05-07T00:21:08;29.58;;;26.23;;
19339;SDS011;9804;52.350;6.684;2023-05-07T00:23:33;33.95;;;28.90;;
19339;SDS011;9804;52.350;6.684;2023-05-07T00:25:59;30.95;;;27.73;;
19339;SDS011;9804;52.350;6.684;2023-05-07T00:28:24;32.10;;;28.70;;
19339;SDS011;9804;52.350;6.684;2023-05-07T00:30:49;32.92;;;29.35;;
19339;SDS011;9804;52.350;6.684;2023-05-07T00:33:15;31.48;;;28.10;;
19339;SDS011;9804;52.350;6.684;2023-05-07T00:35:41;30.70;;;27.00;;
19339;SDS011;9804;52.350;6.684;2023-05-07T00:38:08;30.55;;;27.30;;
19339;SDS011;9804;52.350;6.684;2023-05-07T00:40:33;30.48;;;27.33;;
19339;SDS011;9804;52.350;6.684;2023-05-07T00:42:59;33.55;;;28.00;;
19339;SDS011;9804;52.350;6.684;2023-05-07T00:45:26;31.67;;;28.30;;
19339;SDS011;9804;52.350;6.684;2023-05-07T00:47:55;34.20;;;30.27;;
19339;SDS011;9804;52.350;6.684;2023-05-07T00:50:23;32.92;;;29.33;;
19339;SDS011;9804;52.350;6.684;2023-05-07T00:52:49;37.85;;;29.95;;
19339;SDS011;9804;52.350;6.684;2023-05-07T00:55:14;33.30;;;29.85;;
19339;SDS011;9804;52.350;6.684;2023-05-07T00:57:40;34.45;;;30.30;;
19339;SDS011;9804;52.350;6.684;2023-05-07T01:00:06;33.88;;;29.33;;
19339;SDS011;9804;52.350;6.684;2023-05-07T01:02:37;35.17;;;30.40;;
19339;SDS011;9804;52.350;6.684;2023-05-07T01:05:04;33.50;;;30.00;;
19339;SDS011;9804;52.350;6.684;2023-05-07T01:07:32;34.13;;;29.92;;
19339;SDS011;9804;52.350;6.684;2023-05-07T01:09:59;33.25;;;28.27;;
19339;SDS011;9804;52.350;6.684;2023-05-07T01:12:26;35.67;;;29.42;;
19339;SDS011;9804;52.350;6.684;2023-05-07T01:14:52;31.95;;;28.42;;
19339;SDS011;9804;52.350;6.684;2023-05-07T01:17:18;31.85;;;28.00;;
19339;SDS011;9804;52.350;6.684;2023-05-07T01:19:44;30.65;;;26.73;;
19339;SDS011;9804;52.350;6.684;2023-05-07T01:22:09;30.13;;;25.88;;
19339;SDS011;9804;52.350;6.684;2023-05-07T01:24:39;31.65;;;25.80;;
19339;SDS011;9804;52.350;6.684;2023-05-07T01:27:05;28.52;;;24.70;;
19339;SDS011;9804;52.350;6.684;2023-05-07T01:29:31;31.45;;;26.73;;
19339;SDS011;9804;52.350;6.684;2023-05-07T01:31:57;27.90;;;24.02;;
19339;SDS011;9804;52.350;6.684;2023-05-07T01:34:24;24.30;;;21.70;;
19339;SDS011;9804;52.350;6.684;2023-05-07T01:36:51;27.20;;;22.52;;
19339;SDS011;9804;52.350;6.684;2023-05-07T01:39:20;26.08;;;21.38;;
19339;SDS011;9804;52.350;6.684;2023-05-07T01:41:46;27.50;;;21.80;;
19339;SDS011;9804;52.350;6.684;2023-05-07T01:44:12;26.88;;;20.05;;
19339;SDS011;9804;52.350;6.684;2023-05-07T01:46:39;27.02;;;21.13;;
19339;SDS011;9804;52.350;6.684;2023-05-07T01:49:05;26.27;;;20.27;;
19339;SDS011;9804;52.350;6.684;2023-05-07T01:51:30;25.90;;;20.08;;
19339;SDS011;9804;52.350;6.684;2023-05-07T01:53:56;24.63;;;19.92;;
19339;SDS011;9804;52.350;6.684;2023-05-07T01:56:23;27.95;;;20.63;;
19339;SDS011;9804;52.350;6.684;2023-05-07T01:58:49;27.02;;;20.40;;
19339;SDS011;9804;52.350;6.684;2023-05-07T02:01:16;30.27;;;22.67;;
19339;SDS011;9804;52.350;6.684;2023-05-07T02:03:42;28.75;;;21.55;;
19339;SDS011;9804;52.350;6.684;2023-05-07T02:06:07;30.52;;;22.27;;
19339;SDS011;9804;52.350;6.684;2023-05-07T02:08:32;29.30;;;22.00;;
19339;SDS011;9804;52.350;6.684;2023-05-07T02:10:58;29.67;;;22.73;;
19339;SDS011;9804;52.350;6.684;2023-05-07T02:13:23;30.55;;;22.73;;
19339;SDS011;9804;52.350;6.684;2023-05-07T02:15:49;37.85;;;24.30;;
19339;SDS011;9804;52.350;6.684;2023-05-07T02:18:16;31.58;;;23.27;;
19339;SDS011;9804;52.350;6.684;2023-05-07T02:20:42;36.50;;;25.50;;
19339;SDS011;9804;52.350;6.684;2023-05-07T02:23:07;34.58;;;24.25;;
19339;SDS011;9804;52.350;6.684;2023-05-07T02:25:33;34.15;;;24.55;;
19339;SDS011;9804;52.350;6.684;2023-05-07T02:27:58;32.63;;;23.77;;
19339;SDS011;9804;52.350;6.684;2023-05-07T02:30:24;34.92;;;23.92;;
19339;SDS011;9804;52.350;6.684;2023-05-07T02:32:50;34.72;;;26.30;;
19339;SDS011;9804;52.350;6.684;2023-05-07T02:35:15;37.55;;;25.45;;
19339;SDS011;9804;52.350;6.684;2023-05-07T02:37:41;36.47;;;26.73;;
19339;SDS011;9804;52.350;6.684;2023-05-07T02:40:06;36.00;;;27.00;;
19339;SDS011;9804;52.350;6.684;2023-05-07T02:42:32;36.90;;;26.85;;
19339;SDS011;9804;52.350;6.684;2023-05-07T02:44:57;39.30;;;27.30;;
19339;SDS011;9804;52.350;6.684;2023-05-07T02:47:23;41.25;;;28.10;;
19339;SDS011;9804;52.350;6.684;2023-05-07T02:49:48;36.65;;;26.48;;
19339;SDS011;9804;52.350;6.684;2023-05-07T02:52:14;36.58;;;26.65;;
19339;SDS011;9804;52.350;6.684;2023-05-07T02:54:39;38.65;;;27.13;;
19339;SDS011;9804;52.350;6.684;2023-05-07T02:57:04;41.03;;;27.25;;
19339;SDS011;9804;52.350;6.684;2023-05-07T02:59:30;38.22;;;27.55;;
19339;SDS011;9804;52.350;6.684;2023-05-07T03:01:55;42.38;;;27.23;;
19339;SDS011;9804;52.350;6.684;2023-05-07T03:04:20;39.03;;;28.73;;
19339;SDS011;9804;52.350;6.684;2023-05-07T03:06:46;36.78;;;28.00;;
19339;SDS011;9804;52.350;6.684;2023-05-07T03:09:11;38.17;;;28.25;;
19339;SDS011;9804;52.350;6.684;2023-05-07T03:11:37;41.60;;;27.58;;
19339;SDS011;9804;52.350;6.684;2023-05-07T03:14:02;41.10;;;29.05;;
19339;SDS011;9804;52.350;6.684;2023-05-07T03:16:28;37.58;;;26.55;;
19339;SDS011;9804;52.350;6.684;2023-05-07T03:18:53;39.50;;;27.85;;
19339;SDS011;9804;52.350;6.684;2023-05-07T03:21:18;40.17;;;28.13;;
19339;SDS011;9804;52.350;6.684;2023-05-07T03:23:44;42.38;;;28.48;;
19339;SDS011;9804;52.350;6.684;2023-05-07T03:26:09;38.72;;;27.98;;
19339;SDS011;9804;52.350;6.684;2023-05-07T03:28:35;39.17;;;28.17;;
19339;SDS011;9804;52.350;6.684;2023-05-07T03:31:01;37.63;;;28.48;;
19339;SDS011;9804;52.350;6.684;2023-05-07T03:33:27;40.72;;;28.55;;
19339;SDS011;9804;52.350;6.684;2023-05-07T03:35:52;41.63;;;29.13;;
19339;SDS011;9804;52.350;6.684;2023-05-07T03:38:18;39.55;;;28.63;;
19339;SDS011;9804;52.350;6.684;2023-05-07T03:40:43;41.20;;;28.35;;
19339;SDS011;9804;52.350;6.684;2023-05-07T03:43:09;39.60;;;28.50;;
19339;SDS011;9804;52.350;6.684;2023-05-07T03:45:34;40.88;;;28.55;;
19339;SDS011;9804;52.350;6.684;2023-05-07T03:48:00;42.17;;;28.98;;
19339;SDS011;9804;52.350;6.684;2023-05-07T03:50:25;40.03;;;30.25;;
19339;SDS011;9804;52.350;6.684;2023-05-07T03:52:51;42.38;;;29.17;;
19339;SDS011;9804;52.350;6.684;2023-05-07T03:55:16;43.85;;;29.80;;
19339;SDS011;9804;52.350;6.684;2023-05-07T03:57:42;51.75;;;31.58;;
19339;SDS011;9804;52.350;6.684;2023-05-07T04:00:07;43.15;;;29.33;;
19339;SDS011;9804;52.350;6.684;2023-05-07T04:02:33;40.55;;;29.63;;
19339;SDS011;9804;52.350;6.684;2023-05-07T04:04:58;46.45;;;29.92;;
19339;SDS011;9804;52.350;6.684;2023-05-07T04:07:24;43.50;;;30.65;;
19339;SDS011;9804;52.350;6.684;2023-05-07T04:09:49;45.15;;;30.63;;
19339;SDS011;9804;52.350;6.684;2023-05-07T04:12:15;42.75;;;30.33;;
19339;SDS011;9804;52.350;6.684;2023-05-07T04:14:40;43.28;;;28.48;;
19339;SDS011;9804;52.350;6.684;2023-05-07T04:17:05;40.78;;;29.38;;
19339;SDS011;9804;52.350;6.684;2023-05-07T04:19:33;46.35;;;30.98;;
19339;SDS011;9804;52.350;6.684;2023-05-07T04:21:58;43.13;;;30.58;;
19339;SDS011;9804;52.350;6.684;2023-05-07T04:24:24;40.97;;;29.35;;
19339;SDS011;9804;52.350;6.684;2023-05-07T04:26:49;44.50;;;31.20;;
19339;SDS011;9804;52.350;6.684;2023-05-07T04:29:16;46.20;;;31.25;;
19339;SDS011;9804;52.350;6.684;2023-05-07T04:31:41;42.60;;;29.52;;
19339;SDS011;9804;52.350;6.684;2023-05-07T04:34:09;45.75;;;30.55;;
19339;SDS011;9804;52.350;6.684;2023-05-07T04:36:36;45.70;;;30.83;;
19339;SDS011;9804;52.350;6.684;2023-05-07T04:39:03;47.30;;;30.63;;
19339;SDS011;9804;52.350;6.684;2023-05-07T04:41:28;43.50;;;30.70;;
19339;SDS011;9804;52.350;6.684;2023-05-07T04:43:54;46.00;;;31.60;;
19339;SDS011;9804;52.350;6.684;2023-05-07T04:46:20;45.20;;;31.58;;
19339;SDS011;9804;52.350;6.684;2023-05-07T04:48:45;46.95;;;31.55;;
19339;SDS011;9804;52.350;6.684;2023-05-07T04:51:11;45.08;;;30.48;;
19339;SDS011;9804;52.350;6.684;2023-05-07T04:53:37;45.00;;;29.60;;
19339;SDS011;9804;52.350;6.684;2023-05-07T04:56:02;50.20;;;32.45;;
19339;SDS011;9804;52.350;6.684;2023-05-07T04:58:28;51.05;;;31.67;;
19339;SDS011;9804;52.350;6.684;2023-05-07T05:00:56;48.65;;;32.45;;
19339;SDS011;9804;52.350;6.684;2023-05-07T05:03:22;48.50;;;32.60;;
19339;SDS011;9804;52.350;6.684;2023-05-07T05:05:48;44.72;;;32.50;;
19339;SDS011;9804;52.350;6.684;2023-05-07T05:08:14;50.20;;;33.42;;
19339;SDS011;9804;52.350;6.684;2023-05-07T05:10:40;50.20;;;33.78;;
19339;SDS011;9804;52.350;6.684;2023-05-07T05:13:06;52.53;;;33.13;;
19339;SDS011;9804;52.350;6.684;2023-05-07T05:15:33;51.20;;;32.63;;
19339;SDS011;9804;52.350;6.684;2023-05-07T05:17:58;48.70;;;32.63;;
19339;SDS011;9804;52.350;6.684;2023-05-07T05:20:23;49.97;;;33.60;;
19339;SDS011;9804;52.350;6.684;2023-05-07T05:22:49;53.72;;;33.35;;
19339;SDS011;9804;52.350;6.684;2023-05-07T05:25:14;51.20;;;32.55;;
19339;SDS011;9804;52.350;6.684;2023-05-07T05:27:40;50.58;;;33.60;;
19339;SDS011;9804;52.350;6.684;2023-05-07T05:30:05;54.17;;;33.55;;
19339;SDS011;9804;52.350;6.684;2023-05-07T05:32:31;50.08;;;33.38;;
19339;SDS011;9804;52.350;6.684;2023-05-07T05:34:56;51.10;;;34.58;;
19339;SDS011;9804;52.350;6.684;2023-05-07T05:37:22;49.80;;;34.08;;
19339;SDS011;9804;52.350;6.684;2023-05-07T05:39:47;49.13;;;31.98;;
19339;SDS011;9804;52.350;6.684;2023-05-07T05:42:13;51.88;;;34.13;;
19339;SDS011;9804;52.350;6.684;2023-05-07T05:44:38;51.85;;;33.60;;
19339;SDS011;9804;52.350;6.684;2023-05-07T05:47:03;49.67;;;34.00;;
19339;SDS011;9804;52.350;6.684;2023-05-07T05:49:29;52.20;;;34.95;;
19339;SDS011;9804;52.350;6.684;2023-05-07T05:51:54;48.35;;;32.60;;
19339;SDS011;9804;52.350;6.684;2023-05-07T05:54:20;51.25;;;33.88;;
19339;SDS011;9804;52.350;6.684;2023-05-07T05:56:49;52.85;;;34.63;;
19339;SDS011;9804;52.350;6.684;2023-05-07T05:59:14;50.20;;;35.00;;
19339;SDS011;9804;52.350;6.684;2023-05-07T06:01:40;52.00;;;34.10;;
19339;SDS011;9804;52.350;6.684;2023-05-07T06:04:05;53.25;;;35.67;;
19339;SDS011;9804;52.350;6.684;2023-05-07T06:06:31;55.17;;;34.65;;
19339;SDS011;9804;52.350;6.684;2023-05-07T06:08:57;52.92;;;35.05;;
19339;SDS011;9804;52.350;6.684;2023-05-07T06:11:25;54.13;;;34.03;;
19339;SDS011;9804;52.350;6.684;2023-05-07T06:13:51;50.95;;;34.72;;
19339;SDS011;9804;52.350;6.684;2023-05-07T06:16:17;47.92;;;33.97;;
19339;SDS011;9804;52.350;6.684;2023-05-07T06:18:42;50.53;;;34.75;;
19339;SDS011;9804;52.350;6.684;2023-05-07T06:21:07;51.38;;;35.08;;
19339;SDS011;9804;52.350;6.684;2023-05-07T06:23:33;49.13;;;33.83;;
19339;SDS011;9804;52.350;6.684;2023-05-07T06:25:58;53.10;;;34.92;;
19339;SDS011;9804;52.350;6.684;2023-05-07T06:28:24;52.25;;;34.20;;
19339;SDS011;9804;52.350;6.684;2023-05-07T06:30:49;52.70;;;35.00;;
19339;SDS011;9804;52.350;6.684;2023-05-07T06:33:17;50.13;;;34.15;;
19339;SDS011;9804;52.350;6.684;2023-05-07T06:35:42;52.45;;;34.95;;
19339;SDS011;9804;52.350;6.684;2023-05-07T06:38:08;50.60;;;33.22;;
19339;SDS011;9804;52.350;6.684;2023-05-07T06:40:33;50.40;;;35.10;;
19339;SDS011;9804;52.350;6.684;2023-05-07T06:42:59;50.15;;;33.63;;
19339;SDS011;9804;52.350;6.684;2023-05-07T06:45:24;51.15;;;33.92;;
19339;SDS011;9804;52.350;6.684;2023-05-07T06:47:50;45.67;;;32.08;;
19339;SDS011;9804;52.350;6.684;2023-05-07T06:50:15;47.58;;;32.58;;
19339;SDS011;9804;52.350;6.684;2023-05-07T06:52:42;48.30;;;31.95;;
19339;SDS011;9804;52.350;6.684;2023-05-07T06:55:07;43.50;;;31.63;;
19339;SDS011;9804;52.350;6.684;2023-05-07T06:57:33;45.00;;;31.92;;
19339;SDS011;9804;52.350;6.684;2023-05-07T06:59:58;43.65;;;32.13;;
19339;SDS011;9804;52.350;6.684;2023-05-07T07:02:24;46.42;;;32.38;;
19339;SDS011;9804;52.350;6.684;2023-05-07T07:04:49;47.92;;;33.80;;
19339;SDS011;9804;52.350;6.684;2023-05-07T07:07:14;46.17;;;32.58;;
19339;SDS011;9804;52.350;6.684;2023-05-07T07:09:40;47.60;;;32.25;;
19339;SDS011;9804;52.350;6.684;2023-05-07T07:12:05;44.38;;;30.33;;
19339;SDS011;9804;52.350;6.684;2023-05-07T07:14:30;44.17;;;31.08;;
19339;SDS011;9804;52.350;6.684;2023-05-07T07:16:56;43.92;;;30.52;;
19339;SDS011;9804;52.350;6.684;2023-05-07T07:19:21;42.97;;;31.42;;
19339;SDS011;9804;52.350;6.684;2023-05-07T07:21:47;43.83;;;31.73;;
19339;SDS011;9804;52.350;6.684;2023-05-07T07:24:13;43.60;;;30.52;;
19339;SDS011;9804;52.350;6.684;2023-05-07T07:26:43;42.45;;;30.90;;
19339;SDS011;9804;52.350;6.684;2023-05-07T07:29:09;47.47;;;31.70;;
19339;SDS011;9804;52.350;6.684;2023-05-07T07:31:34;42.80;;;30.92;;
19339;SDS011;9804;52.350;6.684;2023-05-07T07:34:00;41.47;;;30.33;;
19339;SDS011;9804;52.350;6.684;2023-05-07T07:36:25;42.00;;;29.52;;
19339;SDS011;9804;52.350;6.684;2023-05-07T07:38:51;42.22;;;29.83;;
19339;SDS011;9804;52.350;6.684;2023-05-07T07:41:17;40.17;;;29.80;;
19339;SDS011;9804;52.350;6.684;2023-05-07T07:43:43;41.03;;;28.65;;
19339;SDS011;9804;52.350;6.684;2023-05-07T07:46:08;38.10;;;28.45;;
19339;SDS011;9804;52.350;6.684;2023-05-07T07:48:33;39.25;;;30.08;;
19339;SDS011;9804;52.350;6.684;2023-05-07T07:50:59;38.97;;;28.60;;
19339;SDS011;9804;52.350;6.684;2023-05-07T07:53:24;41.13;;;30.48;;
19339;SDS011;9804;52.350;6.684;2023-05-07T07:55:50;40.05;;;29.75;;
19339;SDS011;9804;52.350;6.684;2023-05-07T07:58:15;38.85;;;28.27;;
19339;SDS011;9804;52.350;6.684;2023-05-07T08:00:41;43.92;;;30.05;;
19339;SDS011;9804;52.350;6.684;2023-05-07T08:03:08;36.85;;;28.65;;
19339;SDS011;9804;52.350;6.684;2023-05-07T08:05:34;39.08;;;29.35;;
19339;SDS011;9804;52.350;6.684;2023-05-07T08:08:00;36.38;;;28.83;;
19339;SDS011;9804;52.350;6.684;2023-05-07T08:10:26;43.15;;;30.45;;
19339;SDS011;9804;52.350;6.684;2023-05-07T08:12:51;40.65;;;29.48;;
19339;SDS011;9804;52.350;6.684;2023-05-07T08:15:17;37.72;;;28.30;;
19339;SDS011;9804;52.350;6.684;2023-05-07T08:17:43;40.53;;;29.08;;
19339;SDS011;9804;52.350;6.684;2023-05-07T08:20:08;40.10;;;29.42;;
19339;SDS011;9804;52.350;6.684;2023-05-07T08:22:35;43.75;;;29.45;;
19339;SDS011;9804;52.350;6.684;2023-05-07T08:25:01;38.28;;;29.15;;
19339;SDS011;9804;52.350;6.684;2023-05-07T08:27:26;38.47;;;28.77;;
19339;SDS011;9804;52.350;6.684;2023-05-07T08:29:52;39.08;;;29.27;;
19339;SDS011;9804;52.350;6.684;2023-05-07T08:32:17;38.10;;;28.27;;
19339;SDS011;9804;52.350;6.684;2023-05-07T08:34:43;34.67;;;26.50;;
19339;SDS011;9804;52.350;6.684;2023-05-07T08:37:08;37.35;;;27.73;;
19339;SDS011;9804;52.350;6.684;2023-05-07T08:39:33;37.17;;;28.15;;
19339;SDS011;9804;52.350;6.684;2023-05-07T08:42:00;39.10;;;27.98;;
19339;SDS011;9804;52.350;6.684;2023-05-07T08:44:29;38.53;;;27.67;;
19339;SDS011;9804;52.350;6.684;2023-05-07T08:46:59;37.55;;;28.67;;
19339;SDS011;9804;52.350;6.684;2023-05-07T08:49:27;37.05;;;27.70;;
19339;SDS011;9804;52.350;6.684;2023-05-07T08:51:53;40.10;;;28.85;;
19339;SDS011;9804;52.350;6.684;2023-05-07T08:54:18;36.97;;;27.40;;
19339;SDS011;9804;52.350;6.684;2023-05-07T08:56:45;37.80;;;27.88;;
19339;SDS011;9804;52.350;6.684;2023-05-07T08:59:11;34.97;;;27.08;;
19339;SDS011;9804;52.350;6.684;2023-05-07T09:01:36;34.28;;;27.63;;
19339;SDS011;9804;52.350;6.684;2023-05-07T09:04:02;33.60;;;27.23;;
19339;SDS011;9804;52.350;6.684;2023-05-07T09:06:27;35.53;;;27.33;;
19339;SDS011;9804;52.350;6.684;2023-05-07T09:08:53;35.13;;;27.20;;
19339;SDS011;9804;52.350;6.684;2023-05-07T09:11:19;34.08;;;26.60;;
19339;SDS011;9804;52.350;6.684;2023-05-07T09:13:46;35.17;;;26.42;;
19339;SDS011;9804;52.350;6.684;2023-05-07T09:16:12;32.85;;;25.70;;
19339;SDS011;9804;52.350;6.684;2023-05-07T09:18:44;33.40;;;25.88;;
19339;SDS011;9804;52.350;6.684;2023-05-07T09:21:10;31.55;;;25.00;;
19339;SDS011;9804;52.350;6.684;2023-05-07T09:23:39;34.70;;;26.85;;
19339;SDS011;9804;52.350;6.684;2023-05-07T09:26:05;32.95;;;26.27;;
19339;SDS011;9804;52.350;6.684;2023-05-07T09:28:37;33.90;;;25.90;;
19339;SDS011;9804;52.350;6.684;2023-05-07T09:31:03;32.85;;;25.42;;
19339;SDS011;9804;52.350;6.684;2023-05-07T09:33:29;34.08;;;26.13;;
19339;SDS011;9804;52.350;6.684;2023-05-07T09:35:55;29.90;;;24.08;;
19339;SDS011;9804;52.350;6.684;2023-05-07T09:38:20;33.90;;;25.65;;
19339;SDS011;9804;52.350;6.684;2023-05-07T09:40:46;32.17;;;24.95;;
19339;SDS011;9804;52.350;6.684;2023-05-07T09:43:13;33.15;;;25.55;;
19339;SDS011;9804;52.350;6.684;2023-05-07T09:45:38;34.85;;;26.02;;
19339;SDS011;9804;52.350;6.684;2023-05-07T09:48:04;33.30;;;26.38;;
19339;SDS011;9804;52.350;6.684;2023-05-07T09:50:38;32.92;;;24.45;;
19339;SDS011;9804;52.350;6.684;2023-05-07T09:53:09;32.92;;;25.65;;
19339;SDS011;9804;52.350;6.684;2023-05-07T09:55:35;32.70;;;25.15;;
19339;SDS011;9804;52.350;6.684;2023-05-07T09:58:01;29.08;;;23.75;;
19339;SDS011;9804;52.350;6.684;2023-05-07T10:00:27;30.23;;;24.05;;
19339;SDS011;9804;52.350;6.684;2023-05-07T10:02:54;30.52;;;25.08;;
19339;SDS011;9804;52.350;6.684;2023-05-07T10:05:22;29.27;;;23.60;;
19339;SDS011;9804;52.350;6.684;2023-05-07T10:07:48;28.80;;;23.30;;
19339;SDS011;9804;52.350;6.684;2023-05-07T10:10:14;29.15;;;23.00;;
19339;SDS011;9804;52.350;6.684;2023-05-07T10:12:40;29.42;;;23.63;;
19339;SDS011;9804;52.350;6.684;2023-05-07T10:15:06;28.50;;;23.23;;
19339;SDS011;9804;52.350;6.684;2023-05-07T10:17:36;29.92;;;24.27;;
19339;SDS011;9804;52.350;6.684;2023-05-07T10:20:03;31.23;;;23.70;;
19339;SDS011;9804;52.350;6.684;2023-05-07T10:22:33;26.17;;;21.55;;
19339;SDS011;9804;52.350;6.684;2023-05-07T10:25:04;27.95;;;23.02;;
19339;SDS011;9804;52.350;6.684;2023-05-07T10:27:33;32.53;;;22.38;;
19339;SDS011;9804;52.350;6.684;2023-05-07T10:32:39;29.75;;;22.83;;
19339;SDS011;9804;52.350;6.684;2023-05-07T10:35:10;27.85;;;22.27;;
19339;SDS011;9804;52.350;6.684;2023-05-07T10:37:41;27.58;;;21.65;;
19339;SDS011;9804;52.350;6.684;2023-05-07T10:40:07;28.02;;;22.30;;
19339;SDS011;9804;52.350;6.684;2023-05-07T10:42:34;28.85;;;22.13;;
19339;SDS011;9804;52.350;6.684;2023-05-07T10:45:11;25.38;;;21.75;;
19339;SDS011;9804;52.350;6.684;2023-05-07T10:50:30;27.95;;;22.50;;
19339;SDS011;9804;52.350;6.684;2023-05-07T10:55:43;24.90;;;21.58;;
19339;SDS011;9804;52.350;6.684;2023-05-07T11:00:55;28.20;;;22.05;;
19339;SDS011;9804;52.350;6.684;2023-05-07T11:03:27;27.42;;;22.85;;
19339;SDS011;9804;52.350;6.684;2023-05-07T11:08:57;27.20;;;21.48;;
19339;SDS011;9804;52.350;6.684;2023-05-07T11:14:09;25.40;;;21.35;;
19339;SDS011;9804;52.350;6.684;2023-05-07T11:16:34;27.70;;;22.88;;
19339;SDS011;9804;52.350;6.684;2023-05-07T11:19:01;27.40;;;22.45;;
19339;SDS011;9804;52.350;6.684;2023-05-07T11:21:48;26.13;;;21.85;;
19339;SDS011;9804;52.350;6.684;2023-05-07T11:24:13;27.63;;;22.35;;
19339;SDS011;9804;52.350;6.684;2023-05-07T11:26:45;31.25;;;23.92;;
19339;SDS011;9804;52.350;6.684;2023-05-07T11:29:12;31.00;;;24.67;;
19339;SDS011;9804;52.350;6.684;2023-05-07T11:31:42;30.83;;;23.98;;
19339;SDS011;9804;52.350;6.684;2023-05-07T11:34:08;26.38;;;22.50;;
19339;SDS011;9804;52.350;6.684;2023-05-07T11:36:34;29.45;;;23.58;;
19339;SDS011;9804;52.350;6.684;2023-05-07T11:39:05;28.42;;;22.20;;
19339;SDS011;9804;52.350;6.684;2023-05-07T11:41:35;26.33;;;21.88;;
19339;SDS011;9804;52.350;6.684;2023-05-07T11:44:04;28.38;;;22.10;;
19339;SDS011;9804;52.350;6.684;2023-05-07T11:46:29;28.08;;;22.50;;
19339;SDS011;9804;52.350;6.684;2023-05-07T11:48:55;27.98;;;22.67;;
19339;SDS011;9804;52.350;6.684;2023-05-07T11:51:22;26.15;;;21.65;;
19339;SDS011;9804;52.350;6.684;2023-05-07T11:53:48;30.10;;;21.90;;
19339;SDS011;9804;52.350;6.684;2023-05-07T11:56:16;26.40;;;20.92;;
19339;SDS011;9804;52.350;6.684;2023-05-07T11:58:43;27.30;;;22.83;;
19339;SDS011;9804;52.350;6.684;2023-05-07T12:01:10;26.85;;;21.52;;
19339;SDS011;9804;52.350;6.684;2023-05-07T12:03:39;26.45;;;21.40;;
19339;SDS011;9804;52.350;6.684;2023-05-07T12:06:07;24.38;;;20.27;;
19339;SDS011;9804;52.350;6.684;2023-05-07T12:08:35;28.50;;;21.35;;
19339;SDS011;9804;52.350;6.684;2023-05-07T12:11:02;24.85;;;20.58;;
19339;SDS011;9804;52.350;6.684;2023-05-07T12:13:28;27.52;;;21.55;;
19339;SDS011;9804;52.350;6.684;2023-05-07T12:15:54;26.55;;;20.38;;
19339;SDS011;9804;52.350;6.684;2023-05-07T12:18:20;22.27;;;19.15;;
19339;SDS011;9804;52.350;6.684;2023-05-07T12:20:46;24.42;;;19.75;;
19339;SDS011;9804;52.350;6.684;2023-05-07T12:23:12;20.08;;;17.85;;
19339;SDS011;9804;52.350;6.684;2023-05-07T12:25:39;24.10;;;18.90;;
19339;SDS011;9804;52.350;6.684;2023-05-07T12:28:12;23.33;;;19.98;;
19339;SDS011;9804;52.350;6.684;2023-05-07T12:30:40;25.77;;;20.60;;
19339;SDS011;9804;52.350;6.684;2023-05-07T12:33:06;22.42;;;18.77;;
19339;SDS011;9804;52.350;6.684;2023-05-07T12:35:36;22.40;;;18.17;;
19339;SDS011;9804;52.350;6.684;2023-05-07T12:38:06;20.25;;;17.25;;
19339;SDS011;9804;52.350;6.684;2023-05-07T12:40:37;21.60;;;16.85;;
19339;SDS011;9804;52.350;6.684;2023-05-07T12:43:07;21.85;;;17.77;;
19339;SDS011;9804;52.350;6.684;2023-05-07T12:45:38;24.60;;;19.23;;
19339;SDS011;9804;52.350;6.684;2023-05-07T12:48:04;23.27;;;19.35;;
19339;SDS011;9804;52.350;6.684;2023-05-07T12:50:32;24.85;;;17.65;;
19339;SDS011;9804;52.350;6.684;2023-05-07T12:52:58;20.10;;;17.80;;
19339;SDS011;9804;52.350;6.684;2023-05-07T12:55:24;21.02;;;16.98;;
19339;SDS011;9804;52.350;6.684;2023-05-07T12:57:50;24.88;;;19.27;;
19339;SDS011;9804;52.350;6.684;2023-05-07T13:00:37;21.90;;;18.35;;
19339;SDS011;9804;52.350;6.684;2023-05-07T13:03:03;19.77;;;17.30;;
19339;SDS011;9804;52.350;6.684;2023-05-07T13:05:30;20.98;;;17.83;;
19339;SDS011;9804;52.350;6.684;2023-05-07T13:07:57;25.92;;;18.80;;
19339;SDS011;9804;52.350;6.684;2023-05-07T13:10:23;24.42;;;18.55;;
19339;SDS011;9804;52.350;6.684;2023-05-07T13:12:49;22.83;;;18.08;;
19339;SDS011;9804;52.350;6.684;2023-05-07T13:15:15;22.35;;;18.42;;
19339;SDS011;9804;52.350;6.684;2023-05-07T13:17:41;21.92;;;17.52;;
19339;SDS011;9804;52.350;6.684;2023-05-07T13:20:06;23.83;;;18.38;;
19339;SDS011;9804;52.350;6.684;2023-05-07T13:22:33;21.08;;;18.25;;
19339;SDS011;9804;52.350;6.684;2023-05-07T13:24:58;23.05;;;17.73;;
19339;SDS011;9804;52.350;6.684;2023-05-07T13:27:23;19.75;;;16.55;;
19339;SDS011;9804;52.350;6.684;2023-05-07T13:29:49;18.30;;;15.32;;
19339;SDS011;9804;52.350;6.684;2023-05-07T13:32:14;18.70;;;16.70;;
19339;SDS011;9804;52.350;6.684;2023-05-07T13:34:40;22.50;;;18.35;;
19339;SDS011;9804;52.350;6.684;2023-05-07T13:37:06;21.42;;;17.48;;
19339;SDS011;9804;52.350;6.684;2023-05-07T13:39:32;19.67;;;16.83;;
19339;SDS011;9804;52.350;6.684;2023-05-07T13:41:58;21.83;;;18.10;;
19339;SDS011;9804;52.350;6.684;2023-05-07T13:44:23;22.30;;;17.40;;
19339;SDS011;9804;52.350;6.684;2023-05-07T13:46:48;20.50;;;17.58;;
19339;SDS011;9804;52.350;6.684;2023-05-07T13:49:14;18.40;;;15.65;;
19339;SDS011;9804;52.350;6.684;2023-05-07T13:51:39;22.10;;;15.73;;
19339;SDS011;9804;52.350;6.684;2023-05-07T13:54:05;22.83;;;17.13;;
19339;SDS011;9804;52.350;6.684;2023-05-07T13:56:30;18.83;;;15.80;;
19339;SDS011;9804;52.350;6.684;2023-05-07T13:58:57;18.50;;;14.90;;
19339;SDS011;9804;52.350;6.684;2023-05-07T14:01:23;19.05;;;14.55;;
19339;SDS011;9804;52.350;6.684;2023-05-07T14:03:48;18.45;;;15.02;;
19339;SDS011;9804;52.350;6.684;2023-05-07T14:06:13;19.17;;;16.17;;
19339;SDS011;9804;52.350;6.684;2023-05-07T14:08:39;18.00;;;15.48;;
19339;SDS011;9804;52.350;6.684;2023-05-07T14:11:05;18.35;;;15.68;;
19339;SDS011;9804;52.350;6.684;2023-05-07T14:13:30;17.67;;;15.27;;
19339;SDS011;9804;52.350;6.684;2023-05-07T14:15:56;17.27;;;15.40;;
19339;SDS011;9804;52.350;6.684;2023-05-07T14:18:22;18.55;;;15.35;;
19339;SDS011;9804;52.350;6.684;2023-05-07T14:20:47;18.08;;;16.17;;
19339;SDS011;9804;52.350;6.684;2023-05-07T14:23:13;17.88;;;14.63;;
19339;SDS011;9804;52.350;6.684;2023-05-07T14:25:39;16.75;;;14.35;;
19339;SDS011;9804;52.350;6.684;2023-05-07T14:28:05;16.58;;;14.20;;
19339;SDS011;9804;52.350;6.684;2023-05-07T14:30:31;15.93;;;14.00;;
19339;SDS011;9804;52.350;6.684;2023-05-07T14:32:56;17.38;;;14.85;;
19339;SDS011;9804;52.350;6.684;2023-05-07T14:35:21;14.77;;;13.05;;
19339;SDS011;9804;52.350;6.684;2023-05-07T14:37:47;18.75;;;13.73;;
19339;SDS011;9804;52.350;6.684;2023-05-07T14:40:12;15.55;;;13.60;;
19339;SDS011;9804;52.350;6.684;2023-05-07T14:42:39;16.83;;;13.00;;
19339;SDS011;9804;52.350;6.684;2023-05-07T14:45:05;17.65;;;13.77;;